Data for 01/27/2014

Time Sea-Level Adjusted Pressure Absolute Pressure Temperature Relative Humidity Dew Point   
(mb) (inHg) (mb) (inHg) (C) (F) (%) (C) (F)
00:05 1022 30.18 852 25.16 -8.1 17.5 61 -14.3 6.3
00:10 1022 30.18 852 25.16 -8.1 17.4 61 -14.3 6.2
00:15 1022 30.18 852 25.16 -8.1 17.4 61 -14.4 6.1
00:20 1022 30.18 852 25.16 -8.1 17.4 60 -14.5 5.9
00:25 1022 30.18 852 25.16 -8.1 17.5 59 -14.8 5.3
00:30 1022 30.18 852 25.16 -8.1 17.5 59 -14.7 5.6
00:35 1023 30.21 852 25.16 -8 17.6 59 -14.6 5.7
00:40 1022 30.18 852 25.16 -8 17.7 60 -14.5 5.9
00:45 1022 30.18 852 25.16 -8 17.6 60 -14.4 6.1
00:50 1022 30.18 852 25.16 -8.1 17.5 60 -14.5 5.8
00:55 1022 30.18 852 25.16 -8.2 17.3 61 -14.5 5.8
01:00 1022 30.18 852 25.16 -8.2 17.2 61 -14.4 6
01:05 1022 30.18 851 25.13 -8.4 16.9 62 -14.4 6.1
01:10 1022 30.18 851 25.13 -8.5 16.8 62 -14.5 5.9
01:15 1022 30.18 851 25.13 -8.5 16.8 64 -14.1 6.5
01:20 1022 30.18 851 25.13 -8.5 16.7 64 -14.1 6.5
01:25 1022 30.18 851 25.13 -8.4 16.9 62 -14.4 6
01:30 1022 30.18 851 25.13 -8.4 16.9 62 -14.5 5.8
01:35 1022 30.18 851 25.13 -8.5 16.7 62 -14.5 5.9
01:40 1022 30.18 851 25.13 -8.5 16.7 63 -14.3 6.3
01:45 1022 30.18 851 25.13 -8.4 16.8 62 -14.5 6
01:50 1022 30.18 851 25.13 -8.4 16.9 62 -14.4 6.1
01:55 1022 30.18 851 25.13 -8.3 17 63 -14.2 6.4
02:00 1022 30.18 851 25.13 -8.3 17 63 -14.2 6.4
02:05 1022 30.18 851 25.13 -8.2 17.2 63 -14.1 6.7
02:10 1022 30.18 851 25.13 -8.2 17.3 62 -14.2 6.4
02:15 1022 30.18 851 25.13 -8.2 17.3 63 -14 6.8
02:20 1022 30.18 851 25.13 -8.2 17.2 64 -13.9 7
02:25 1022 30.18 851 25.13 -8.3 17.1 64 -13.9 7
02:30 1022 30.18 851 25.13 -8.3 17 64 -13.9 6.9
02:35 1022 30.18 851 25.13 -8.3 17.1 62 -14.3 6.3
02:40 1022 30.18 851 25.13 -8.4 17 62 -14.4 6.1
02:45 1022 30.18 851 25.13 -8.4 16.9 61 -14.6 5.7
02:50 1022 30.18 851 25.13 -8.5 16.7 66 -13.8 7.1
02:55 1021 30.15 851 25.13 -8.7 16.3 68 -13.6 7.5
03:00 1022 30.18 851 25.13 -8.7 16.3 66 -14 6.8
03:05 1021 30.15 851 25.13 -8.8 16.2 66 -14 6.7
03:10 1022 30.18 851 25.13 -8.7 16.3 66 -13.9 6.9
03:15 1022 30.18 851 25.13 -8.7 16.4 64 -14.3 6.2
03:20 1022 30.18 851 25.13 -8.7 16.4 66 -14 6.9
03:25 1022 30.18 851 25.13 -8.6 16.4 65 -14 6.8
03:30 1022 30.18 851 25.13 -8.6 16.5 67 -13.8 7.2
03:35 1022 30.18 851 25.13 -8.5 16.8 65 -14 6.8
03:40 1022 30.18 851 25.13 -8.4 16.9 64 -14.1 6.6
03:45 1022 30.18 851 25.13 -8.4 16.9 65 -13.9 6.9
03:50 1022 30.18 851 25.13 -8.4 16.8 66 -13.8 7.2
03:55 1022 30.18 851 25.13 -8.4 16.9 65 -13.9 7
04:00 1022 30.18 851 25.13 -8.4 16.9 66 -13.6 7.4
04:05 1022 30.18 851 25.13 -8.4 16.8 65 -13.8 7.2
04:10 1022 30.18 851 25.13 -8.5 16.8 64 -14.1 6.7
04:15 1022 30.18 851 25.13 -8.4 16.8 66 -13.7 7.4
04:20 1022 30.18 851 25.13 -8.4 16.8 65 -13.9 7
04:25 1022 30.18 851 25.13 -8.4 16.8 64 -14.1 6.7
04:30 1022 30.18 851 25.13 -8.5 16.8 64 -14.2 6.5
04:35 1022 30.18 851 25.13 -8.5 16.7 66 -13.8 7.1
04:40 1022 30.18 851 25.13 -8.5 16.8 65 -13.9 7
04:45 1022 30.18 851 25.13 -8.5 16.7 66 -13.8 7.1
04:50 1022 30.18 851 25.13 -8.5 16.6 65 -14 6.8
04:55 1022 30.18 851 25.13 -8.6 16.6 67 -13.7 7.4
05:00 1022 30.18 851 25.13 -8.8 16.1 71 -13.2 8.3
05:05 1022 30.18 851 25.13 -9 15.7 71 -13.3 8
05:10 1022 30.18 851 25.13 -9 15.8 71 -13.3 8
05:15 1022 30.18 851 25.13 -9 15.9 66 -14.2 6.5
05:20 1022 30.18 851 25.13 -8.9 16.1 66 -14 6.7
05:25 1022 30.18 851 25.13 -8.8 16.1 65 -14.4 6.2
05:30 1022 30.18 851 25.13 -8.8 16.2 65 -14.2 6.4
05:35 1022 30.18 851 25.13 -8.7 16.4 65 -14.2 6.4
05:40 1022 30.18 851 25.13 -8.7 16.3 65 -14.2 6.5
05:45 1022 30.18 851 25.13 -8.7 16.4 65 -14.1 6.7
05:50 1022 30.18 851 25.13 -8.8 16.3 65 -14.2 6.5
05:55 1022 30.18 851 25.13 -8.8 16.2 65 -14.3 6.3
06:00 1022 30.18 851 25.13 -8.8 16.2 65 -14.3 6.3
06:05 1022 30.18 851 25.13 -8.8 16.1 65 -14.3 6.3
06:10 1022 30.18 851 25.13 -8.8 16.1 65 -14.2 6.4
06:15 1022 30.18 852 25.16 -8.8 16.1 65 -14.3 6.2
06:20 1022 30.18 851 25.13 -8.8 16.1 65 -14.2 6.4
06:25 1022 30.18 851 25.13 -8.9 16 68 -13.7 7.4
06:30 1022 30.18 851 25.13 -9.2 15.5 69 -13.8 7.1
06:35 1022 30.18 851 25.13 -9.3 15.3 70 -13.8 7.2
06:40 1022 30.18 851 25.13 -9.2 15.4 68 -14.1 6.7
06:45 1022 30.18 851 25.13 -9.1 15.5 68 -14 6.8
06:50 1022 30.18 851 25.13 -9.1 15.6 66 -14.3 6.3
06:55 1022 30.18 851 25.13 -9.1 15.7 65 -14.6 5.7
07:00 1022 30.18 851 25.13 -9 15.8 63 -14.9 5.2
07:05 1022 30.18 851 25.13 -9.1 15.7 60 -15.4 4.3
07:10 1022 30.18 851 25.13 -9.1 15.5 62 -15.1 4.7
07:15 1022 30.18 851 25.13 -9.3 15.2 64 -15 5.1
07:20 1022 30.18 851 25.13 -9.5 14.9 66 -14.8 5.4
07:25 1022 30.18 851 25.13 -9.6 14.8 67 -14.6 5.6
07:30 1022 30.18 851 25.13 -9.6 14.7 67 -14.7 5.5
07:35 1022 30.18 851 25.13 -9.5 14.8 66 -14.8 5.4
07:40 1022 30.18 851 25.13 -9.5 14.9 65 -14.9 5.1
07:45 1022 30.18 851 25.13 -9.5 15 64 -15.1 4.9
07:50 1022 30.18 851 25.13 -9.4 15 65 -14.8 5.3
07:55 1022 30.18 851 25.13 -9.3 15.2 65 -14.8 5.3
08:00 1022 30.18 851 25.13 -9.3 15.2 65 -14.7 5.5
08:05 1022 30.18 851 25.13 -9.3 15.2 65 -14.7 5.6
08:10 1022 30.18 851 25.13 -9.4 15.1 66 -14.6 5.7
08:15 1022 30.18 851 25.13 -9.5 14.9 67 -14.5 5.9
08:20 1022 30.18 851 25.13 -9.6 14.8 69 -14.3 6.3
08:25 1022 30.18 851 25.13 -9.7 14.6 69 -14.3 6.3
08:30 1022 30.18 851 25.13 -9.9 14.2 70 -14.3 6.2
08:35 1022 30.18 852 25.16 -9.9 14.2 70 -14.3 6.2
08:40 1022 30.18 852 25.16 -9.8 14.3 69 -14.4 6
08:45 1022 30.18 852 25.16 -9.8 14.4 68 -14.6 5.8
08:50 1022 30.18 852 25.16 -9.8 14.4 68 -14.6 5.7
08:55 1022 30.18 852 25.16 -9.8 14.3 68 -14.7 5.5
09:00 1022 30.18 852 25.16 -9.9 14.2 70 -14.5 5.9
09:05 1022 30.18 852 25.16 -10 14 71 -14.3 6.3
09:10 1022 30.18 852 25.16 -10.2 13.7 72 -14.2 6.4
09:15 1023 30.21 852 25.16 -10.4 13.4 71 -14.7 5.5
09:20 1023 30.21 852 25.16 -10.4 13.4 73 -14.4 6.1
09:25 1023 30.21 852 25.16 -9.9 14.3 70 -14.3 6.2
09:30 1023 30.21 852 25.16 -9.7 14.5 70 -14.2 6.5
09:35 1023 30.21 852 25.16 -9.7 14.5 69 -14.3 6.3
09:40 1023 30.21 852 25.16 -10.1 13.8 71 -14.5 6
09:45 1023 30.21 852 25.16 -9.8 14.4 68 -14.6 5.7
09:50 1023 30.21 852 25.16 -9.5 15 66 -14.7 5.6
09:55 1023 30.21 852 25.16 -9.4 15.1 67 -14.5 5.9
10:00 1023 30.21 852 25.16 -9.2 15.5 65 -14.7 5.6
10:05 1023 30.21 852 25.16 -8.5 16.6 62 -14.7 5.6
10:10 1023 30.21 852 25.16 -8.3 17.1 62 -14.4 6.1
10:15 1023 30.21 852 25.16 -8.8 16.3 62 -14.8 5.3
10:20 1023 30.21 852 25.16 -9.2 15.5 63 -15 5
10:25 1023 30.21 852 25.16 -8.8 16.1 61 -15 5
10:30 1023 30.21 852 25.16 -8 17.6 58 -14.9 5.2
10:35 1023 30.21 852 25.16 -7.6 18.3 56 -14.9 5.1
10:40 1023 30.21 852 25.16 -7.8 17.9 57 -14.9 5.1
10:45 1023 30.21 852 25.16 -7.8 17.9 57 -14.8 5.3
10:50 1023 30.21 852 25.16 -7.2 19.1 55 -14.9 5.3
10:55 1023 30.21 852 25.16 -7.2 19.1 55 -14.8 5.4
11:00 1023 30.21 852 25.16 -7.4 18.8 54 -15.2 4.6
11:05 1023 30.21 852 25.16 -7.7 18.2 55 -15.3 4.5
11:10 1023 30.21 852 25.16 -8 17.7 56 -15.3 4.4
11:15 1023 30.21 852 25.16 -7.8 18 57 -14.8 5.4
11:20 1023 30.21 852 25.16 -7.3 18.8 53 -15.4 4.3
11:25 1023 30.21 852 25.16 -7.2 19.1 55 -14.8 5.3
11:30 1023 30.21 852 25.16 -7.2 19.1 53 -15.1 4.8
11:35 1023 30.21 852 25.16 -7.3 19 52 -15.6 3.9
11:40 1023 30.21 852 25.16 -7.1 19.3 52 -15.3 4.5
11:45 1023 30.21 852 25.16 -6.9 19.5 54 -14.8 5.3
11:50 1023 30.21 852 25.16 -7.1 19.3 52 -15.3 4.5
11:55 1023 30.21 852 25.16 -6.8 19.7 50 -15.6 3.9
12:00 1023 30.21 853 25.19 -6.6 20.2 49 -15.6 3.9
12:05 1023 30.21 853 25.19 -6.4 20.5 48 -15.8 3.6
12:10 1023 30.21 853 25.19 -6 21.3 46 -15.9 3.4
12:15 1023 30.21 853 25.19 -5.8 21.5 46 -15.7 3.7
12:20 1023 30.21 853 25.19 -6.1 21 46 -16 3.1
12:25 1023 30.21 853 25.19 -6 21.2 44 -16.3 2.6
12:30 1023 30.21 853 25.19 -5.9 21.3 42 -17 1.5
12:35 1023 30.21 853 25.19 -6 21.2 43 -16.5 2.3
12:40 1023 30.21 853 25.19 -5.5 22.1 38 -17.8 -0.1
12:45 1023 30.21 852 25.16 -5.9 21.4 40 -17.3 0.8
12:50 1023 30.21 852 25.16 -6 21.2 42 -17.1 1.2
12:55 1023 30.21 852 25.16 -5.6 21.9 43 -16.3 2.7
13:00 1023 30.21 852 25.16 -5.5 22.2 43 -16.3 2.7
13:05 1023 30.21 852 25.16 -5.1 22.8 37 -17.8 0
13:10 1023 30.21 852 25.16 -5 23 35 -18.2 -0.8
13:15 1023 30.21 852 25.16 -5.2 22.6 38 -17.3 0.8
13:20 1023 30.21 852 25.16 -5.2 22.6 43 -16 3.2
13:25 1023 30.21 852 25.16 -5.9 21.4 45 -15.9 3.4
13:30 1023 30.21 852 25.16 -6 21.2 46 -15.7 3.7
13:35 1023 30.21 852 25.16 -6.3 20.7 45 -16.3 2.6
13:40 1023 30.21 852 25.16 -5.7 21.8 42 -16.6 2.2
13:45 1023 30.21 852 25.16 -5.9 21.5 42 -16.7 1.9
13:50 1023 30.21 852 25.16 -5.7 21.7 41 -17 1.4
13:55 1023 30.21 852 25.16 -5.5 22 41 -16.8 1.7
14:00 1023 30.21 852 25.16 -5.5 22.1 40 -17.2 1.1
14:05 1023 30.21 852 25.16 -5.3 22.4 37 -18 -0.4
14:10 1023 30.21 852 25.16 -4.7 23.5 32 -19.2 -2.6
14:15 1023 30.21 852 25.16 -4.3 24.2 33 -18.3 -1
14:20 1023 30.21 852 25.16 -4 24.9 31 -18.6 -1.5
14:25 1023 30.21 852 25.16 -4 24.7 30 -19.3 -2.7
14:30 1023 30.21 852 25.16 -4.5 23.9 30 -19.5 -3.2
14:35 1023 30.21 852 25.16 -3.9 24.9 32 -18.5 -1.3
14:40 1023 30.21 852 25.16 -3.8 25.2 32 -18.2 -0.8
14:45 1023 30.21 852 25.16 -4.1 24.6 32 -18.4 -1.2
14:50 1023 30.21 852 25.16 -4 24.8 34 -17.8 -0
14:55 1023 30.21 852 25.16 -3.7 25.3 32 -18.3 -1
15:00 1023 30.21 852 25.16 -3.3 26 31 -18 -0.5
15:05 1023 30.21 852 25.16 -3.4 25.9 31 -18.2 -0.7
15:10 1023 30.21 852 25.16 -3.2 26.3 32 -17.8 -0.1
15:15 1023 30.21 852 25.16 -2.9 26.8 29 -18.7 -1.7
15:20 1023 30.21 852 25.16 -2.9 26.7 31 -17.7 0.1
15:25 1023 30.21 852 25.16 -2.9 26.7 31 -18 -0.4
15:30 1023 30.21 852 25.16 -2.7 27.1 31 -17.7 0.1
15:35 1023 30.21 852 25.16 -2.2 28 26 -19.2 -2.5
15:40 1023 30.21 852 25.16 -2.5 27.5 27 -19.3 -2.7
15:45 1023 30.21 852 25.16 -2.8 27 30 -18.3 -0.9
15:50 1023 30.21 852 25.16 -2.8 26.9 31 -17.9 -0.3
15:55 1023 30.21 852 25.16 -3.1 26.5 26 -19.9 -3.8
16:00 1023 30.21 852 25.16 -3.2 26.3 24 -21.1 -6
16:05 1023 30.21 852 25.16 -3.2 26.3 25 -20.7 -5.3
16:10 1023 30.21 852 25.16 -3.3 26 25 -20.7 -5.3
16:15 1023 30.21 852 25.16 -3.6 25.6 28 -19.7 -3.4
16:20 1023 30.21 852 25.16 -3.4 25.9 25 -20.6 -5
16:25 1023 30.21 852 25.16 -4 24.7 24 -22.1 -7.7
16:30 1023 30.21 852 25.16 -3.9 24.9 24 -21.6 -6.8
16:35 1023 30.21 852 25.16 -3.9 24.9 25 -21.1 -6
16:40 1023 30.21 852 25.16 -3.1 26.5 23 -21.7 -7.1
16:45 1023 30.21 852 25.16 -3 26.6 25 -20.3 -4.5
16:50 1023 30.21 852 25.16 -3.7 25.3 24 -21.5 -6.6
16:55 1023 30.21 852 25.16 -4.7 23.5 24 -22.6 -8.6
17:00 1023 30.21 852 25.16 -4.9 23.1 26 -21.7 -7.1
17:05 1023 30.21 852 25.16 -4.4 24.1 25 -21.5 -6.6
17:10 1023 30.21 852 25.16 -4.5 23.9 26 -21.5 -6.7
17:15 1023 30.21 852 25.16 -4 24.7 26 -21.1 -6
17:20 1023 30.21 852 25.16 -3.8 25.1 28 -19.8 -3.6
17:25 1023 30.21 852 25.16 -3.8 25.2 25 -21.3 -6.3
17:30 1023 30.21 852 25.16 -3.3 26.1 26 -20.4 -4.6
17:35 1023 30.21 852 25.16 -3.4 25.9 24 -21.4 -6.5
17:40 1023 30.21 852 25.16 -3.3 26.1 24 -21.3 -6.3
17:45 1023 30.21 852 25.16 -3.3 26 24 -21 -5.9
17:50 1023 30.21 852 25.16 -3.5 25.6 24 -21.5 -6.8
17:55 1023 30.21 852 25.16 -4.2 24.5 29 -19.8 -3.7
18:00 1023 30.21 852 25.16 -5.3 22.4 30 -20.4 -4.7
18:05 1023 30.21 852 25.16 -6.1 20.9 31 -20.8 -5.4
18:10 1023 30.21 852 25.16 -6.1 21.1 32 -20.4 -4.8
18:15 1023 30.21 852 25.16 -6.1 21 30 -21.1 -6.1
18:20 1023 30.21 852 25.16 -6.7 19.9 30 -21.5 -6.7
18:25 1023 30.21 852 25.16 -6.7 20 31 -21.3 -6.4
18:30 1023 30.21 852 25.16 -6.7 19.9 30 -21.6 -6.9
18:35 1023 30.21 853 25.19 -6.7 20 31 -21.1 -6
18:40 1023 30.21 853 25.19 -6.8 19.7 31 -21.5 -6.7
18:45 1024 30.24 853 25.19 -7 19.5 32 -21.1 -6
18:50 1024 30.24 853 25.19 -7.2 19 32 -21.3 -6.4
18:55 1024 30.24 853 25.19 -7.5 18.5 33 -21.3 -6.4
19:00 1023 30.21 853 25.19 -8 17.6 37 -20.2 -4.4
19:05 1024 30.24 853 25.19 -8.7 16.4 40 -20.1 -4.2
19:10 1024 30.24 853 25.19 -9.1 15.7 39 -20.7 -5.3
19:15 1024 30.24 853 25.19 -9.2 15.4 39 -20.7 -5.3
19:20 1024 30.24 853 25.19 -9.3 15.4 40 -20.6 -5.2
19:25 1024 30.24 853 25.19 -9.1 15.7 41 -20 -4
19:30 1024 30.24 853 25.19 -9.2 15.4 43 -19.5 -3.2
19:35 1024 30.24 853 25.19 -9.6 14.7 42 -20.2 -4.4
19:40 1024 30.24 853 25.19 -9.7 14.5 42 -20.3 -4.5
19:45 1024 30.24 853 25.19 -9.9 14.3 43 -20.3 -4.5
19:50 1024 30.24 853 25.19 -9.8 14.3 44 -20 -4
19:55 1024 30.24 853 25.19 -10 14.1 45 -19.9 -3.8
20:00 1024 30.24 853 25.19 -9.9 14.1 44 -20 -4
20:05 1024 30.24 853 25.19 -10 14 43 -20.2 -4.4
20:10 1024 30.24 853 25.19 -9.5 14.9 44 -19.6 -3.2
20:15 1024 30.24 853 25.19 -9.9 14.2 50 -18.6 -1.4
20:20 1024 30.24 853 25.19 -10.2 13.6 51 -18.6 -1.4
20:25 1024 30.24 853 25.19 -10.3 13.4 52 -18.3 -1
20:30 1024 30.24 853 25.19 -10.7 12.7 54 -18.3 -1
20:35 1024 30.24 853 25.19 -10.8 12.7 54 -18.3 -1
20:40 1024 30.24 853 25.19 -10.8 12.6 54 -18.3 -0.9
20:45 1024 30.24 853 25.19 -10.7 12.7 53 -18.5 -1.3
20:50 1024 30.24 853 25.19 -10.1 13.8 49 -18.9 -2
20:55 1024 30.24 853 25.19 -10.4 13.2 52 -18.6 -1.5
21:00 1024 30.24 853 25.19 -10.9 12.3 53 -18.7 -1.6
21:05 1024 30.24 853 25.19 -11.2 11.9 54 -18.7 -1.6
21:10 1024 30.24 853 25.19 -11.4 11.5 54 -18.9 -1.9
21:15 1024 30.24 853 25.19 -11.6 11.2 56 -18.7 -1.6
21:20 1024 30.24 853 25.19 -11.8 10.8 56 -18.9 -2
21:25 1024 30.24 853 25.19 -11.9 10.7 56 -19 -2.3
21:30 1024 30.24 853 25.19 -11.8 10.8 55 -19 -2.2
21:35 1024 30.24 853 25.19 -11.7 11 57 -18.6 -1.5
21:40 1024 30.24 853 25.19 -11.6 11.2 55 -18.8 -1.9
21:45 1024 30.24 853 25.19 -12 10.4 58 -18.7 -1.6
21:50 1024 30.24 853 25.19 -12.5 9.5 58 -19.1 -2.3
21:55 1024 30.24 853 25.19 -12.3 9.9 58 -18.9 -2.1
22:00 1024 30.24 853 25.19 -11.9 10.6 57 -18.8 -1.8
22:05 1024 30.24 853 25.19 -11.7 11 56 -18.9 -2
22:10 1024 30.24 853 25.19 -11.5 11.3 54 -19 -2.1
22:15 1024 30.24 853 25.19 -11.4 11.4 55 -18.9 -2
22:20 1024 30.24 853 25.19 -11.5 11.3 56 -18.6 -1.6
22:25 1024 30.24 853 25.19 -11.8 10.8 57 -18.7 -1.6
22:30 1024 30.24 854 25.22 -11.9 10.5 58 -18.7 -1.6
22:35 1024 30.24 854 25.22 -12.5 9.5 59 -18.9 -2
22:40 1024 30.24 854 25.22 -12.8 9 60 -19.1 -2.3
22:45 1024 30.24 854 25.22 -12.6 9.4 58 -19.1 -2.4
22:50 1024 30.24 854 25.22 -12.4 9.6 58 -19 -2.2
22:55 1024 30.24 854 25.22 -12.4 9.6 59 -18.9 -2.1
23:00 1024 30.24 854 25.22 -12.4 9.6 58 -19 -2.2
23:05 1024 30.24 854 25.22 -12.5 9.5 58 -19.1 -2.3
23:10 1024 30.24 854 25.22 -12.6 9.2 59 -19.2 -2.5
23:15 1024 30.24 854 25.22 -12.7 9.1 59 -19.2 -2.6
23:20 1024 30.24 854 25.22 -12.8 9.1 59 -19.3 -2.7
23:25 1024 30.24 854 25.22 -12.8 9 59 -19.2 -2.6
23:30 1024 30.24 854 25.22 -12.9 8.8 59 -19.3 -2.8
23:35 1024 30.24 854 25.22 -12.8 9 60 -19.1 -2.4
23:40 1024 30.24 854 25.22 -12.7 9.2 59 -19.2 -2.6
23:45 1024 30.24 854 25.22 -12.7 9.1 59 -19.2 -2.6
23:50 1024 30.24 854 25.22 -12.7 9.2 59 -19.1 -2.4
23:55 1024 30.24 854 25.22 -12.6 9.4 58 -19.2 -2.5
24:00 1024 30.24 854 25.22 -12.4 9.7 58 -19.1 -2.4